Heman, Illinois
Current Conditions -  °F | °C
As of 12:54 PM on Saturday 20 Dec 2014 (Local Time) from KDEC Reporting Station
Overcast Overcast  
Wind Chill: 29°   Ceiling: 6000
Heat Index: 35°   Visibility: 8mi
Dew Point: 28°   Wind: 7mph
Humidity: 76%   Direction: 160°SSE
Pressure: 30.25"   Gusts: NA
Location:  39.9621°N, 89.0863°W
Report Text: KDEC 201854Z 16006KT 8SM FEW014 OVC060 02/M02 A3025 RMK AO2 SLP252 T00171022
Loading
Personal Weather Stations






























Interactive Weather Map New forecast layout! Learn more

10-Day Weather Forecast

Advertisements
Track Severe Weather on mobile